Time;durP1;ratioP1;P1;durP2;ratioP2;P2;SDS_P1;SDS_P2;PMS_P1;PMS_P2;Temp;Humidity;BMP_temperature;BMP_pressure;BME280_temperature;BME280_humidity;BME280_pressure;Samples;Min_cycle;Max_cycle;Signal;HPM_P1;HPM_P2
2022/04/28 00:00:28;;;;;;;11.37;10.37;;;;;;;;;;5072576;28;20447;-76
2022/04/28 00:02:55;;;;;;;12.03;10.93;;;;;;;;;;5072367;28;20448;-77
2022/04/28 00:05:22;;;;;;;13.00;11.80;;;;;;;;;;5073208;28;20443;-75
2022/04/28 00:07:50;;;;;;;12.43;10.00;;;;;;;;;;5073315;28;21027;-75
2022/04/28 00:10:17;;;;;;;12.00;10.90;;;;;;;;;;5073173;28;20452;-76
2022/04/28 00:12:45;;;;;;;12.00;10.77;;;;;;;;;;5072686;28;20460;-76
2022/04/28 00:15:12;;;;;;;12.37;11.37;;;;;;;;;;5074860;28;20956;-77
2022/04/28 00:17:39;;;;;;;12.07;11.00;;;;;;;;;;5073097;28;20461;-77
2022/04/28 00:20:06;;;;;;;11.90;10.80;;;;;;;;;;5072042;28;20958;-76
2022/04/28 00:22:33;;;;;;;12.53;11.43;;;;;;;;;;5072267;28;20440;-77
2022/04/28 00:25:02;;;;;;;13.50;11.67;;;;;;;;;;5072232;28;20440;-76
2022/04/28 00:27:30;;;;;;;13.53;12.43;;;;;;;;;;5071881;28;20464;-76
2022/04/28 00:29:57;;;;;;;13.50;11.90;;;;;;;;;;5072170;28;20608;-75
2022/04/28 00:32:24;;;;;;;12.20;11.10;;;;;;;;;;5071978;28;20448;-76
2022/04/28 00:34:51;;;;;;;13.47;12.37;;;;;;;;;;5076620;28;20490;-76
2022/04/28 00:37:19;;;;;;;13.67;12.47;;;;;;;;;;5091876;28;20474;-76
2022/04/28 00:39:46;;;;;;;12.60;11.50;;;;;;;;;;5092162;28;20499;-76
2022/04/28 00:42:15;;;;;;;13.53;12.33;;;;;;;;;;5091960;28;20444;-76
2022/04/28 00:44:42;;;;;;;12.33;11.23;;;;;;;;;;5091727;28;20443;-77
2022/04/28 00:47:09;;;;;;;12.43;11.30;;;;;;;;;;5092032;28;20481;-77
2022/04/28 00:52:22;;;;;;;13.27;12.17;;;;;;;;;;5090751;28;20940;-75
2022/04/28 00:54:50;;;;;;;13.20;12.07;;;;;;;;;;5091586;28;20479;-76
2022/04/28 00:57:19;;;;;;;12.27;11.17;;;;;;;;;;5091272;28;20475;-76
2022/04/28 00:59:47;;;;;;;12.47;11.47;;;;;;;;;;5091971;28;20972;-78
2022/04/28 01:02:14;;;;;;;13.20;11.97;;;;;;;;;;5091822;28;20444;-77
2022/04/28 01:04:41;;;;;;;12.70;11.70;;;;;;;;;;5091257;28;20448;-77
2022/04/28 01:07:08;;;;;;;12.97;11.77;;;;;;;;;;5091145;28;20566;-76
2022/04/28 01:09:37;;;;;;;13.23;12.13;;;;;;;;;;5091387;28;20458;-75
2022/04/28 01:12:08;;;;;;;12.80;11.50;;;;;;;;;;5091626;28;20455;-76
2022/04/28 01:14:36;;;;;;;13.43;12.17;;;;;;;;;;5091560;28;20494;-76
2022/04/28 01:17:03;;;;;;;13.50;11.70;;;;;;;;;;5091885;28;20474;-77
2022/04/28 01:19:30;;;;;;;13.27;11.97;;;;;;;;;;5091874;28;20950;-75
2022/04/28 01:21:59;;;;;;;12.03;10.93;;;;;;;;;;5091439;28;20443;-78
2022/04/28 01:24:26;;;;;;;13.10;11.90;;;;;;;;;;5091961;28;20466;-76
2022/04/28 01:29:35;;;;;;;12.87;11.47;;;;;;;;;;5096187;27;20460;-77
2022/04/28 01:32:03;;;;;;;12.80;11.70;;;;;;;;;;5092126;28;20431;-76
2022/04/28 01:34:30;;;;;;;12.67;11.57;;;;;;;;;;5091252;28;20451;-76
2022/04/28 01:36:57;;;;;;;13.50;12.30;;;;;;;;;;5092292;28;20465;-75
2022/04/28 01:39:26;;;;;;;12.90;11.83;;;;;;;;;;5091300;28;20454;-76
2022/04/28 01:41:53;;;;;;;12.63;11.43;;;;;;;;;;5091458;28;20443;-76
2022/04/28 01:44:20;;;;;;;13.70;12.50;;;;;;;;;;5091245;28;20830;-75
2022/04/28 01:46:47;;;;;;;12.80;11.50;;;;;;;;;;5090515;28;20950;-77
2022/04/28 01:49:14;;;;;;;14.20;12.70;;;;;;;;;;5090734;28;20439;-77
2022/04/28 01:57:11;;;;;;;14.47;13.17;;;;;;;;;;5090329;28;20805;-76
2022/04/28 01:59:38;;;;;;;13.50;12.40;;;;;;;;;;5091117;28;20444;-76
2022/04/28 02:02:06;;;;;;;15.10;13.73;;;;;;;;;;5090359;28;20452;-77
2022/04/28 02:04:33;;;;;;;15.80;14.50;;;;;;;;;;5090202;28;20436;-76
2022/04/28 02:07:00;;;;;;;15.70;14.23;;;;;;;;;;5090691;28;20552;-77
2022/04/28 02:09:29;;;;;;;15.83;14.30;;;;;;;;;;5090417;28;20450;-78
2022/04/28 02:11:56;;;;;;;15.90;14.43;;;;;;;;;;5090497;28;20827;-76
2022/04/28 02:14:23;;;;;;;14.20;13.07;;;;;;;;;;5091298;28;20440;-77
2022/04/28 02:16:50;;;;;;;15.77;14.37;;;;;;;;;;5090103;28;20491;-76
2022/04/28 02:19:18;;;;;;;14.77;13.37;;;;;;;;;;5093978;28;20456;-77
2022/04/28 02:21:45;;;;;;;15.60;13.50;;;;;;;;;;5091455;28;20470;-76
2022/04/28 02:24:12;;;;;;;14.77;13.30;;;;;;;;;;5090872;28;20460;-76
2022/04/28 02:26:40;;;;;;;15.10;13.70;;;;;;;;;;5090999;28;20453;-75
2022/04/28 02:29:08;;;;;;;15.27;13.93;;;;;;;;;;5090782;28;20448;-76
2022/04/28 02:31:35;;;;;;;16.63;15.13;;;;;;;;;;5090359;28;20953;-76
2022/04/28 02:34:02;;;;;;;16.40;14.80;;;;;;;;;;5090525;28;21223;-77
2022/04/28 02:36:29;;;;;;;15.03;13.73;;;;;;;;;;5089805;28;20482;-76
2022/04/28 02:38:56;;;;;;;14.73;13.23;;;;;;;;;;5090223;28;20452;-75
2022/04/28 02:41:23;;;;;;;15.60;14.10;;;;;;;;;;5090624;28;20988;-77
2022/04/28 02:43:51;;;;;;;14.47;13.27;;;;;;;;;;5091000;28;20447;-75
2022/04/28 02:46:19;;;;;;;16.40;14.90;;;;;;;;;;5095825;28;20464;-75
2022/04/28 02:48:46;;;;;;;15.50;14.10;;;;;;;;;;5096671;28;20449;-76
2022/04/28 02:51:15;;;;;;;16.00;14.43;;;;;;;;;;5097136;28;20442;-76
2022/04/28 02:53:42;;;;;;;16.23;14.83;;;;;;;;;;5094613;28;20455;-76
2022/04/28 02:56:09;;;;;;;15.50;14.07;;;;;;;;;;5101832;28;20472;-75
2022/04/28 02:58:37;;;;;;;16.63;15.10;;;;;;;;;;5117404;28;20440;-76
2022/04/28 03:01:05;;;;;;;16.00;14.50;;;;;;;;;;5117343;28;20432;-76
2022/04/28 03:03:33;;;;;;;15.40;13.80;;;;;;;;;;5117181;28;20428;-77
2022/04/28 03:11:30;;;;;;;16.70;15.13;;;;;;;;;;5098730;28;20408;-77
2022/04/28 03:13:58;;;;;;;14.77;13.37;;;;;;;;;;5102336;28;20428;-76
2022/04/28 03:16:26;;;;;;;16.37;14.87;;;;;;;;;;5101793;28;20515;-76
2022/04/28 03:18:53;;;;;;;15.60;14.10;;;;;;;;;;5100910;28;20487;-74
2022/04/28 03:21:20;;;;;;;16.80;15.20;;;;;;;;;;5100206;28;20454;-75
2022/04/28 03:23:48;;;;;;;15.37;13.97;;;;;;;;;;5094915;28;20443;-75
2022/04/28 03:26:15;;;;;;;14.67;13.37;;;;;;;;;;5093972;28;20468;-75
2022/04/28 03:28:42;;;;;;;16.47;14.80;;;;;;;;;;5094099;28;20858;-76
2022/04/28 03:31:09;;;;;;;15.33;13.93;;;;;;;;;;5096282;28;20439;-76
2022/04/28 03:33:38;;;;;;;15.47;14.07;;;;;;;;;;5094023;28;20915;-75
2022/04/28 03:36:50;;;;;;;14.50;13.30;;;;;;;;;;5097124;28;20491;-74
2022/04/28 03:38:53;;;;;;;15.57;14.10;;;;;;;;;;5092853;28;20527;-75
2022/04/28 03:41:20;;;;;;;15.20;13.80;;;;;;;;;;5093327;28;20502;-76
2022/04/28 03:43:47;;;;;;;15.60;14.00;;;;;;;;;;5092823;28;20934;-76
2022/04/28 03:46:15;;;;;;;14.97;13.57;;;;;;;;;;5093040;28;20466;-77
2022/04/28 03:48:43;;;;;;;17.20;15.60;;;;;;;;;;5093597;28;20490;-76
2022/04/28 03:51:10;;;;;;;15.63;14.17;;;;;;;;;;5093325;28;20880;-75
2022/04/28 03:53:37;;;;;;;15.37;14.00;;;;;;;;;;5093384;28;20444;-77
2022/04/28 03:56:04;;;;;;;16.80;15.10;;;;;;;;;;5092376;28;21007;-77
2022/04/28 03:58:32;;;;;;;16.73;15.03;;;;;;;;;;5092944;28;20444;-76
2022/04/28 04:00:59;;;;;;;15.37;13.87;;;;;;;;;;5092552;28;20935;-75
2022/04/28 04:03:26;;;;;;;16.33;14.83;;;;;;;;;;5092565;28;20471;-75
2022/04/28 04:05:55;;;;;;;18.13;16.33;;;;;;;;;;5092726;28;20468;-76
2022/04/28 04:08:22;;;;;;;16.67;14.97;;;;;;;;;;5092991;28;20524;-76
2022/04/28 04:10:49;;;;;;;16.40;14.90;;;;;;;;;;5093551;28;20452;-75
2022/04/28 04:13:16;;;;;;;14.97;13.43;;;;;;;;;;5092383;28;20476;-75
2022/04/28 04:15:43;;;;;;;15.53;14.03;;;;;;;;;;5092750;28;20488;-75
2022/04/28 04:18:10;;;;;;;16.40;14.67;;;;;;;;;;5093210;28;20945;-75
2022/04/28 04:20:37;;;;;;;15.30;13.73;;;;;;;;;;5091902;28;20800;-76
2022/04/28 04:23:06;;;;;;;17.03;15.33;;;;;;;;;;5092062;28;20937;-76
2022/04/28 04:25:33;;;;;;;16.90;15.20;;;;;;;;;;5092406;28;20448;-78
2022/04/28 04:28:00;;;;;;;17.23;15.47;;;;;;;;;;5092748;28;20444;-76
2022/04/28 04:33:12;;;;;;;16.13;14.63;;;;;;;;;;5093870;28;20523;-76
2022/04/28 04:35:39;;;;;;;16.17;14.67;;;;;;;;;;5094143;28;20479;-76
2022/04/28 04:38:07;;;;;;;16.60;14.90;;;;;;;;;;5083167;28;20453;-74
2022/04/28 04:40:34;;;;;;;16.00;14.60;;;;;;;;;;5074569;28;20479;-76
2022/04/28 04:43:02;;;;;;;16.77;14.93;;;;;;;;;;5076701;28;20448;-76
2022/04/28 04:45:29;;;;;;;17.20;15.50;;;;;;;;;;5072397;28;20471;-76
2022/04/28 04:47:56;;;;;;;18.07;16.17;;;;;;;;;;5072856;28;20440;-76
2022/04/28 04:50:23;;;;;;;18.00;16.10;;;;;;;;;;5073205;28;20444;-76
2022/04/28 04:52:50;;;;;;;17.03;14.50;;;;;;;;;;5072002;28;20453;-77
2022/04/28 04:55:19;;;;;;;18.33;16.40;;;;;;;;;;5072761;28;20796;-76
2022/04/28 04:57:46;;;;;;;18.87;17.07;;;;;;;;;;5071457;28;20488;-75
2022/04/28 05:00:13;;;;;;;18.50;16.63;;;;;;;;;;5071037;28;20900;-76
2022/04/28 05:02:40;;;;;;;17.87;16.17;;;;;;;;;;5071823;28;20452;-76
2022/04/28 05:05:08;;;;;;;22.13;16.77;;;;;;;;;;5071665;28;20945;-76
2022/04/28 05:07:35;;;;;;;16.53;14.93;;;;;;;;;;5087157;28;20478;-75
2022/04/28 05:10:02;;;;;;;16.83;15.10;;;;;;;;;;5091338;28;20452;-76
2022/04/28 05:12:31;;;;;;;19.00;17.23;;;;;;;;;;5091335;28;20444;-77
2022/04/28 05:14:58;;;;;;;24.00;21.70;;;;;;;;;;5091115;28;20480;-75
2022/04/28 05:17:25;;;;;;;19.47;17.43;;;;;;;;;;5091349;28;20493;-77
2022/04/28 05:19:52;;;;;;;17.77;16.07;;;;;;;;;;5090744;28;20475;-76
2022/04/28 05:22:19;;;;;;;18.83;17.03;;;;;;;;;;5091675;28;20454;-75
2022/04/28 05:24:46;;;;;;;21.87;19.77;;;;;;;;;;5093777;28;20519;-74
2022/04/28 05:27:14;;;;;;;18.80;17.10;;;;;;;;;;5092294;28;20582;-77
2022/04/28 05:29:42;;;;;;;19.10;17.20;;;;;;;;;;5090979;28;20489;-76
2022/04/28 05:32:09;;;;;;;19.73;17.73;;;;;;;;;;5090979;28;20436;-77
2022/04/28 05:34:36;;;;;;;18.67;16.77;;;;;;;;;;5091063;28;20448;-78
2022/04/28 05:37:04;;;;;;;19.10;17.30;;;;;;;;;;5094142;28;20532;-79
2022/04/28 05:39:31;;;;;;;21.37;18.80;;;;;;;;;;5094328;28;20447;-76
2022/04/28 05:41:58;;;;;;;22.07;19.40;;;;;;;;;;5090919;28;20992;-76
2022/04/28 05:47:11;;;;;;;19.90;16.60;;;;;;;;;;5092350;28;20434;-76
2022/04/28 05:49:39;;;;;;;19.97;17.60;;;;;;;;;;5092732;28;20450;-76
2022/04/28 05:52:07;;;;;;;38.87;33.10;;;;;;;;;;5092443;28;20448;-77
2022/04/28 05:54:35;;;;;;;20.00;18.00;;;;;;;;;;5090991;28;20445;-76
2022/04/28 05:57:02;;;;;;;17.13;15.47;;;;;;;;;;5090783;28;20505;-76
2022/04/28 05:59:29;;;;;;;20.47;16.83;;;;;;;;;;5091437;28;20438;-76
2022/04/28 06:01:56;;;;;;;18.10;16.30;;;;;;;;;;5093554;28;20440;-75
2022/04/28 06:04:25;;;;;;;18.43;16.83;;;;;;;;;;5093211;28;20490;-77
2022/04/28 06:06:52;;;;;;;18.30;16.50;;;;;;;;;;5085615;28;20515;-76
2022/04/28 06:09:19;;;;;;;17.60;16.00;;;;;;;;;;5070210;28;20483;-76
2022/04/28 06:11:46;;;;;;;18.07;16.40;;;;;;;;;;5070913;28;20436;-76
2022/04/28 06:14:13;;;;;;;26.63;23.63;;;;;;;;;;5090250;28;20454;-76
2022/04/28 06:16:41;;;;;;;21.60;19.47;;;;;;;;;;5093500;28;20491;-76
2022/04/28 06:19:08;;;;;;;18.33;16.43;;;;;;;;;;5094533;28;20471;-76
2022/04/28 06:21:36;;;;;;;16.90;15.20;;;;;;;;;;5092859;28;20454;-77
2022/04/28 06:24:03;;;;;;;17.50;15.80;;;;;;;;;;5091223;28;20958;-77
2022/04/28 06:26:31;;;;;;;16.60;15.00;;;;;;;;;;5091245;28;20542;-77
2022/04/28 06:28:58;;;;;;;16.67;15.13;;;;;;;;;;5090787;28;20444;-76
2022/04/28 06:31:25;;;;;;;17.57;15.80;;;;;;;;;;5090846;28;20558;-75
2022/04/28 06:33:52;;;;;;;15.53;14.13;;;;;;;;;;5090492;28;20862;-76
2022/04/28 06:36:19;;;;;;;14.40;13.03;;;;;;;;;;5089704;28;20489;-76
2022/04/28 06:38:47;;;;;;;15.03;13.73;;;;;;;;;;5090143;28;20446;-75
2022/04/28 06:41:14;;;;;;;17.03;15.50;;;;;;;;;;5090244;28;20439;-76
2022/04/28 06:43:42;;;;;;;15.83;14.30;;;;;;;;;;5089627;28;20439;-77
2022/04/28 06:46:16;;;;;;;15.33;13.77;;;;;;;;;;5090198;28;20470;-76
2022/04/28 06:48:43;;;;;;;14.87;13.50;;;;;;;;;;5089963;28;20428;-76
2022/04/28 06:51:10;;;;;;;14.00;12.70;;;;;;;;;;5093068;28;20432;-75
2022/04/28 06:53:39;;;;;;;14.40;13.20;;;;;;;;;;5093808;28;20474;-76
2022/04/28 06:56:08;;;;;;;13.83;12.60;;;;;;;;;;5094152;28;20550;-76
2022/04/28 06:58:37;;;;;;;13.50;12.30;;;;;;;;;;5094044;28;20997;-76
2022/04/28 07:01:04;;;;;;;13.07;11.87;;;;;;;;;;5094547;28;20446;-76
2022/04/28 07:03:31;;;;;;;12.93;11.83;;;;;;;;;;5094823;28;20448;-76
2022/04/28 07:05:58;;;;;;;14.13;12.87;;;;;;;;;;5093649;28;20460;-76
2022/04/28 07:08:25;;;;;;;13.93;12.63;;;;;;;;;;5094425;28;20444;-76
2022/04/28 07:10:52;;;;;;;13.47;12.37;;;;;;;;;;5100999;28;20451;-77
2022/04/28 07:13:21;;;;;;;13.57;12.33;;;;;;;;;;5093301;28;20475;-76
2022/04/28 07:15:48;;;;;;;13.73;12.50;;;;;;;;;;5093887;28;20471;-75
2022/04/28 07:18:16;;;;;;;13.57;12.17;;;;;;;;;;5096026;28;20490;-75
2022/04/28 07:20:44;;;;;;;13.63;12.43;;;;;;;;;;5095703;28;20443;-75
2022/04/28 07:23:12;;;;;;;14.23;12.73;;;;;;;;;;5095094;28;20443;-77
2022/04/28 07:25:39;;;;;;;14.43;12.20;;;;;;;;;;5095263;28;20464;-76
2022/04/28 07:28:06;;;;;;;12.60;11.30;;;;;;;;;;5094212;28;20486;-76
2022/04/28 07:30:34;;;;;;;12.40;11.20;;;;;;;;;;5094445;28;20954;-76
2022/04/28 07:33:01;;;;;;;12.23;11.13;;;;;;;;;;5093491;28;20946;-77
2022/04/28 07:35:28;;;;;;;13.50;10.37;;;;;;;;;;5099659;28;20447;-78
2022/04/28 07:37:55;;;;;;;12.43;11.33;;;;;;;;;;5095797;28;20471;-76
2022/04/28 07:40:23;;;;;;;12.37;11.27;;;;;;;;;;5095851;28;20956;-75
2022/04/28 07:42:50;;;;;;;11.93;10.93;;;;;;;;;;5093152;28;20926;-77
2022/04/28 07:45:17;;;;;;;11.60;10.60;;;;;;;;;;5092312;28;20451;-76
2022/04/28 07:47:45;;;;;;;10.97;10.03;;;;;;;;;;5093530;28;20455;-76
2022/04/28 07:50:12;;;;;;;11.77;10.53;;;;;;;;;;5093757;28;20448;-77
2022/04/28 07:52:39;;;;;;;11.30;10.23;;;;;;;;;;5093347;28;20900;-76
2022/04/28 07:55:07;;;;;;;10.07;9.17;;;;;;;;;;5093318;28;20440;-77
2022/04/28 07:57:34;;;;;;;10.37;9.53;;;;;;;;;;5094680;28;20472;-77
2022/04/28 08:00:01;;;;;;;9.90;9.10;;;;;;;;;;5093652;28;20449;-76
2022/04/28 08:02:29;;;;;;;9.87;8.73;;;;;;;;;;5092416;28;20447;-77
2022/04/28 08:04:57;;;;;;;10.63;9.73;;;;;;;;;;5092892;28;20456;-77
2022/04/28 08:07:25;;;;;;;10.10;9.17;;;;;;;;;;5098109;28;20452;-79
2022/04/28 08:09:52;;;;;;;10.80;9.60;;;;;;;;;;5095096;28;20961;-76
2022/04/28 08:12:19;;;;;;;9.63;8.90;;;;;;;;;;5093369;28;20455;-77
2022/04/28 08:14:46;;;;;;;8.57;7.87;;;;;;;;;;5093898;28;20495;-76
2022/04/28 08:17:13;;;;;;;8.70;7.93;;;;;;;;;;5093486;28;20485;-78
2022/04/28 08:19:40;;;;;;;7.77;7.10;;;;;;;;;;5095835;28;20463;-77
2022/04/28 08:22:09;;;;;;;7.80;7.10;;;;;;;;;;5094850;28;20452;-76
2022/04/28 08:24:36;;;;;;;7.50;6.90;;;;;;;;;;5096599;28;20456;-77
2022/04/28 08:27:03;;;;;;;7.40;6.80;;;;;;;;;;5092656;28;20452;-77
2022/04/28 08:29:30;;;;;;;7.10;6.60;;;;;;;;;;5092489;28;20435;-77
2022/04/28 08:31:57;;;;;;;7.97;7.27;;;;;;;;;;5092848;28;20455;-77
2022/04/28 08:34:25;;;;;;;7.53;6.83;;;;;;;;;;5092952;28;20432;-77
2022/04/28 08:36:52;;;;;;;8.00;7.30;;;;;;;;;;5092223;28;20491;-77
2022/04/28 08:39:20;;;;;;;8.67;7.70;;;;;;;;;;5092180;28;20534;-77
2022/04/28 08:41:47;;;;;;;7.57;7.00;;;;;;;;;;5075957;28;20462;-77
2022/04/28 08:44:17;;;;;;;7.47;6.97;;;;;;;;;;5091809;28;20531;-77
2022/04/28 08:46:54;;;;;;;6.90;6.30;;;;;;;;;;5092628;28;20559;-74
2022/04/28 08:49:22;;;;;;;5.90;5.40;;;;;;;;;;5088076;28;20452;-75
2022/04/28 08:51:51;;;;;;;5.83;5.43;;;;;;;;;;5090274;28;20447;-76
2022/04/28 08:54:18;;;;;;;6.60;6.10;;;;;;;;;;5091742;28;20458;-74
2022/04/28 08:56:46;;;;;;;6.10;5.70;;;;;;;;;;5091649;28;20490;-75
2022/04/28 08:59:14;;;;;;;5.67;5.27;;;;;;;;;;5091873;28;20458;-76
2022/04/28 09:01:41;;;;;;;6.20;5.60;;;;;;;;;;5098794;28;20463;-79
2022/04/28 09:04:10;;;;;;;5.10;4.60;;;;;;;;;;5105688;28;20452;-78
2022/04/28 09:06:37;;;;;;;5.43;4.93;;;;;;;;;;5114279;28;20464;-76
2022/04/28 09:09:05;;;;;;;4.90;4.50;;;;;;;;;;5101289;28;20444;-77
2022/04/28 09:11:34;;;;;;;6.47;4.80;;;;;;;;;;5095475;28;20443;-76
2022/04/28 09:14:13;;;;;;;5.10;4.70;;;;;;;;;;5095871;28;20468;-77
2022/04/28 09:16:43;;;;;;;4.90;4.50;;;;;;;;;;5092465;28;20532;-77
2022/04/28 09:19:10;;;;;;;4.60;4.20;;;;;;;;;;5094934;28;20440;-78
2022/04/28 09:21:37;;;;;;;4.50;4.20;;;;;;;;;;5113777;28;20424;-78
2022/04/28 09:24:05;;;;;;;4.50;4.10;;;;;;;;;;5102430;28;20440;-78
2022/04/28 09:26:33;;;;;;;4.13;3.83;;;;;;;;;;5099124;28;20445;-76
2022/04/28 09:29:02;;;;;;;4.20;3.90;;;;;;;;;;5098370;28;20461;-78
2022/04/28 09:31:34;;;;;;;4.05;3.70;;;;;;;;;;5095644;28;20466;-78
2022/04/28 09:34:05;;;;;;;4.90;4.40;;;;;;;;;;5094079;28;20445;-78
2022/04/28 09:36:33;;;;;;;4.10;3.80;;;;;;;;;;5093264;28;20447;-78
2022/04/28 09:39:00;;;;;;;3.90;3.60;;;;;;;;;;5092221;28;20483;-76
2022/04/28 09:44:12;;;;;;;4.67;4.27;;;;;;;;;;5090689;28;20181;-76
2022/04/28 09:46:44;;;;;;;4.60;4.30;;;;;;;;;;5091280;28;20421;-78
2022/04/28 09:49:12;;;;;;;4.30;3.85;;;;;;;;;;5093024;28;20437;-78
2022/04/28 09:51:40;;;;;;;3.90;3.70;;;;;;;;;;5090957;28;20471;-79
2022/04/28 09:54:08;;;;;;;4.50;4.10;;;;;;;;;;5092437;28;20690;-78
2022/04/28 09:56:36;;;;;;;5.43;5.13;;;;;;;;;;5106834;28;20573;-77
2022/04/28 09:59:05;;;;;;;3.87;3.67;;;;;;;;;;5107201;28;20959;-77
2022/04/28 10:01:32;;;;;;;3.70;3.40;;;;;;;;;;5106236;28;20435;-78
2022/04/28 10:04:01;;;;;;;4.07;3.70;;;;;;;;;;5106791;28;20435;-77
2022/04/28 10:06:28;;;;;;;4.07;3.78;;;;;;;;;;5095619;28;20436;-78
2022/04/28 10:08:56;;;;;;;5.50;3.67;;;;;;;;;;5091798;28;20445;-78
2022/04/28 10:11:24;;;;;;;4.05;3.85;;;;;;;;;;5089594;28;20852;-76
2022/04/28 10:13:52;;;;;;;4.65;4.22;;;;;;;;;;5090239;28;20650;-77
2022/04/28 10:16:21;;;;;;;4.13;3.63;;;;;;;;;;5090553;28;20743;-76
2022/04/28 10:18:50;;;;;;;4.10;3.80;;;;;;;;;;5090325;28;20543;-77
2022/04/28 10:21:21;;;;;;;4.30;3.80;;;;;;;;;;5089737;28;20472;-77
2022/04/28 10:32:23;;;;;;;5.27;3.77;;;;;;;;;;5089510;28;21000;-78
2022/04/28 10:35:05;;;;;;;3.30;3.10;;;;;;;;;;5076796;28;20436;-77
2022/04/28 10:37:35;;;;;;;4.30;4.00;;;;;;;;;;5087609;28;20483;-78
2022/04/28 10:40:03;;;;;;;6.10;4.10;;;;;;;;;;5090159;28;20466;-80
2022/04/28 10:42:49;;;;;;;3.60;3.30;;;;;;;;;;5099462;28;20475;-79
2022/04/28 10:45:22;;;;;;;4.20;3.90;;;;;;;;;;5097903;28;20912;-80
2022/04/28 10:47:49;;;;;;;4.13;3.70;;;;;;;;;;5078404;28;20684;-78
2022/04/28 10:50:23;;;;;;;4.10;3.53;;;;;;;;;;5096643;28;20440;-79
2022/04/28 10:52:56;;;;;;;4.13;3.83;;;;;;;;;;5097725;28;20427;-78
2022/04/28 10:55:24;;;;;;;3.90;3.60;;;;;;;;;;5097385;28;20431;-78
2022/04/28 10:57:51;;;;;;;4.17;3.77;;;;;;;;;;5097134;28;20525;-77
2022/04/28 11:00:34;;;;;;;3.93;3.53;;;;;;;;;;5095417;28;20447;-77
2022/04/28 11:03:01;;;;;;;4.17;3.87;;;;;;;;;;5096872;28;20912;-79
2022/04/28 11:05:29;;;;;;;3.77;3.50;;;;;;;;;;5097152;28;20443;-79
2022/04/28 11:07:59;;;;;;;4.10;3.70;;;;;;;;;;5095498;28;20436;-78
2022/04/28 11:10:27;;;;;;;4.13;3.83;;;;;;;;;;5096578;28;20205;-78
2022/04/28 11:12:55;;;;;;;4.18;3.78;;;;;;;;;;5096144;28;20455;-77
2022/04/28 11:15:23;;;;;;;4.23;3.67;;;;;;;;;;5096621;28;20208;-76
2022/04/28 11:17:50;;;;;;;5.90;3.97;;;;;;;;;;5096171;28;20566;-75
2022/04/28 11:20:20;;;;;;;3.88;3.60;;;;;;;;;;5096587;28;20439;-75
2022/04/28 11:22:47;;;;;;;4.20;3.80;;;;;;;;;;5097331;28;20197;-76
2022/04/28 11:25:17;;;;;;;3.77;3.57;;;;;;;;;;5098635;28;20446;-77
2022/04/28 11:27:45;;;;;;;4.10;3.80;;;;;;;;;;5097147;28;20443;-78
2022/04/28 11:30:13;;;;;;;4.10;3.75;;;;;;;;;;5098200;28;20444;-76
2022/04/28 11:32:46;;;;;;;3.92;3.63;;;;;;;;;;5099683;28;20445;-77
2022/04/28 11:35:13;;;;;;;3.83;3.63;;;;;;;;;;5098982;28;20444;-77
2022/04/28 11:37:40;;;;;;;3.50;3.30;;;;;;;;;;5094971;28;20907;-77
2022/04/28 11:40:13;;;;;;;3.90;3.60;;;;;;;;;;5094943;28;20433;-78
2022/04/28 11:42:42;;;;;;;3.93;3.53;;;;;;;;;;5094825;28;20232;-77
2022/04/28 11:45:09;;;;;;;3.70;3.50;;;;;;;;;;5095078;28;20445;-78
2022/04/28 11:47:39;;;;;;;4.18;3.55;;;;;;;;;;5093341;28;20439;-77
2022/04/28 11:50:06;;;;;;;4.00;3.70;;;;;;;;;;5093642;28;20461;-77
2022/04/28 11:52:34;;;;;;;3.50;3.30;;;;;;;;;;5092199;28;20448;-78
2022/04/28 11:55:03;;;;;;;4.10;3.80;;;;;;;;;;5099413;28;20436;-77
2022/04/28 11:57:30;;;;;;;3.90;3.60;;;;;;;;;;5096804;28;20478;-77
2022/04/28 11:59:59;;;;;;;3.95;3.20;;;;;;;;;;5092785;28;20460;-78
2022/04/28 12:02:27;;;;;;;3.43;3.13;;;;;;;;;;5094444;28;20547;-78
2022/04/28 12:04:54;;;;;;;6.23;3.93;;;;;;;;;;5098970;28;20465;-77
2022/04/28 12:07:22;;;;;;;3.30;3.00;;;;;;;;;;5093548;28;20464;-77
2022/04/28 12:15:23;;;;;;;3.73;3.43;;;;;;;;;;5095970;28;20529;-77
2022/04/28 12:20:51;;;;;;;3.50;3.20;;;;;;;;;;5093551;28;20535;-78
2022/04/28 12:23:28;;;;;;;4.17;3.87;;;;;;;;;;5095014;28;20677;-77
2022/04/28 12:25:58;;;;;;;3.70;3.50;;;;;;;;;;5095573;28;20813;-78
2022/04/28 12:28:30;;;;;;;3.50;3.30;;;;;;;;;;5098551;28;20486;-78
2022/04/28 12:30:59;;;;;;;2.97;2.83;;;;;;;;;;5096019;28;20447;-78
2022/04/28 12:33:27;;;;;;;5.70;3.37;;;;;;;;;;5097967;28;20443;-77
2022/04/28 12:35:58;;;;;;;3.30;3.00;;;;;;;;;;5095610;28;20790;-76
2022/04/28 12:38:27;;;;;;;2.90;2.70;;;;;;;;;;5093608;28;20648;-77
2022/04/28 12:40:54;;;;;;;3.30;3.10;;;;;;;;;;5092214;28;20878;-77
2022/04/28 12:43:37;;;;;;;3.73;3.43;;;;;;;;;;5092072;28;20451;-76
2022/04/28 12:46:06;;;;;;;3.83;3.53;;;;;;;;;;5092165;28;20487;-77
2022/04/28 12:48:34;;;;;;;3.10;2.90;;;;;;;;;;5091540;28;20507;-78
2022/04/28 12:51:11;;;;;;;3.40;3.20;;;;;;;;;;5092073;28;20659;-77
2022/04/28 12:53:38;;;;;;;3.10;2.90;;;;;;;;;;5091977;28;20535;-76
2022/04/28 12:56:07;;;;;;;3.80;3.00;;;;;;;;;;5091797;28;20856;-78
2022/04/28 12:58:36;;;;;;;3.43;2.90;;;;;;;;;;5091379;28;20904;-77
2022/04/28 13:01:05;;;;;;;3.77;3.50;;;;;;;;;;5091764;28;20452;-77
2022/04/28 13:03:32;;;;;;;3.13;2.83;;;;;;;;;;5094136;28;20447;-77
2022/04/28 13:05:59;;;;;;;3.50;3.20;;;;;;;;;;5091435;28;20520;-78
2022/04/28 13:08:26;;;;;;;3.10;2.90;;;;;;;;;;5091382;28;20448;-79
2022/04/28 13:10:53;;;;;;;3.30;3.10;;;;;;;;;;5091729;28;20459;-77
2022/04/28 13:13:20;;;;;;;3.20;2.90;;;;;;;;;;5091812;28;20440;-77
2022/04/28 13:15:47;;;;;;;3.50;3.00;;;;;;;;;;5091269;28;20460;-76
2022/04/28 13:18:16;;;;;;;3.47;3.10;;;;;;;;;;5090961;28;21014;-77
2022/04/28 13:20:43;;;;;;;3.40;3.20;;;;;;;;;;5090599;28;20727;-77
2022/04/28 13:23:11;;;;;;;3.30;3.10;;;;;;;;;;5091511;28;20208;-77
2022/04/28 13:25:38;;;;;;;3.87;2.83;;;;;;;;;;5090899;28;20928;-76
2022/04/28 13:28:05;;;;;;;3.00;2.80;;;;;;;;;;5091272;28;20508;-78
2022/04/28 13:30:32;;;;;;;3.15;2.95;;;;;;;;;;5090203;28;20444;-77
2022/04/28 13:32:59;;;;;;;3.10;2.90;;;;;;;;;;5090379;28;20777;-77
2022/04/28 13:35:28;;;;;;;3.10;2.80;;;;;;;;;;5091511;28;20444;-77
2022/04/28 13:37:55;;;;;;;3.20;3.00;;;;;;;;;;5091122;28;20198;-78
2022/04/28 13:40:22;;;;;;;4.00;3.70;;;;;;;;;;5090154;28;20471;-77
2022/04/28 13:42:49;;;;;;;3.37;3.17;;;;;;;;;;5091112;28;20454;-77
2022/04/28 13:45:16;;;;;;;3.10;2.90;;;;;;;;;;5090766;28;20452;-77
2022/04/28 13:47:43;;;;;;;3.27;3.03;;;;;;;;;;5091069;28;20455;-78
2022/04/28 13:50:10;;;;;;;3.17;2.87;;;;;;;;;;5091501;28;20443;-77
2022/04/28 13:52:39;;;;;;;3.40;3.20;;;;;;;;;;5093680;28;21139;-77
2022/04/28 13:55:07;;;;;;;4.20;2.80;;;;;;;;;;5093436;28;20871;-77
2022/04/28 13:57:35;;;;;;;3.27;3.07;;;;;;;;;;5090591;28;20545;-77
2022/04/28 14:00:02;;;;;;;3.70;3.40;;;;;;;;;;5090833;28;20503;-77
2022/04/28 14:02:29;;;;;;;3.33;3.03;;;;;;;;;;5090317;28;20455;-78
2022/04/28 14:04:56;;;;;;;3.13;2.92;;;;;;;;;;5089747;28;20919;-77
2022/04/28 14:07:23;;;;;;;3.42;3.13;;;;;;;;;;5090052;28;20514;-77
2022/04/28 14:09:52;;;;;;;2.87;2.67;;;;;;;;;;5090504;28;20205;-77
2022/04/28 14:12:19;;;;;;;5.83;3.13;;;;;;;;;;5090942;28;20448;-78
2022/04/28 14:14:46;;;;;;;3.80;3.60;;;;;;;;;;5090013;28;20447;-77
2022/04/28 14:17:13;;;;;;;3.43;3.00;;;;;;;;;;5090237;28;20475;-78
2022/04/28 14:19:40;;;;;;;3.33;3.03;;;;;;;;;;5090047;28;20486;-78
2022/04/28 14:22:07;;;;;;;4.10;2.93;;;;;;;;;;5090072;28;20194;-78
2022/04/28 14:24:34;;;;;;;3.20;2.93;;;;;;;;;;5089453;28;20950;-77
2022/04/28 14:27:03;;;;;;;3.90;3.50;;;;;;;;;;5089757;28;20471;-78
2022/04/28 14:29:30;;;;;;;3.30;3.10;;;;;;;;;;5090817;28;20486;-76
2022/04/28 14:31:57;;;;;;;3.13;2.83;;;;;;;;;;5091272;28;20441;-76
2022/04/28 14:34:24;;;;;;;2.90;2.80;;;;;;;;;;5090938;28;20448;-77
2022/04/28 14:36:51;;;;;;;4.70;3.40;;;;;;;;;;5090234;28;20613;-78
2022/04/28 14:39:18;;;;;;;2.77;2.57;;;;;;;;;;5090530;28;21017;-77
2022/04/28 14:41:45;;;;;;;3.43;3.13;;;;;;;;;;5090046;28;20478;-77
2022/04/28 14:44:15;;;;;;;3.00;2.70;;;;;;;;;;5089924;28;20459;-77
2022/04/28 14:46:42;;;;;;;3.37;3.07;;;;;;;;;;5090389;28;20475;-76
2022/04/28 14:54:40;;;;;;;13.02;11.93;;;;;;;;;;5089614;28;20415;-77
2022/04/28 14:57:07;;;;;;;3.03;2.83;;;;;;;;;;5089919;28;20724;-77
2022/04/28 14:59:36;;;;;;;3.67;3.00;;;;;;;;;;5091032;28;20471;-78
2022/04/28 15:02:04;;;;;;;3.30;3.00;;;;;;;;;;5090396;28;20467;-77
2022/04/28 15:04:31;;;;;;;3.50;3.20;;;;;;;;;;5090167;28;20440;-77
2022/04/28 15:06:58;;;;;;;3.10;2.90;;;;;;;;;;5090154;28;20475;-78
2022/04/28 15:09:26;;;;;;;3.40;3.20;;;;;;;;;;5090647;28;20474;-77
2022/04/28 15:11:53;;;;;;;3.33;3.03;;;;;;;;;;5091367;28;20518;-78
2022/04/28 15:14:20;;;;;;;3.10;2.90;;;;;;;;;;5093880;28;20483;-77
2022/04/28 15:16:49;;;;;;;3.10;2.90;;;;;;;;;;5094300;28;20479;-78
2022/04/28 15:19:16;;;;;;;4.00;3.70;;;;;;;;;;5093843;28;20487;-78